Strona główna
METAR-TAF:

METAR-TAF

Lotnisko :

Port lotniczy Konakry

Konakry, Gwinea

Szerokość geograficzna: 09-34N, Długość geograficzna: 013-37W, wysokość: 26 m

Aktualna obserwacja pogody

Raport powstał 1 godzina i 4 minut temu, godzina 20:00 UTC
Wiatr 10 kt od południowo-południowy zachód
Temperatura 29°C
Wilgotność 79%
Ciśnienie 1012 hPa
Widzialność 10 km lub więcej
Mało chmury na wysokości 1500 ft

METAR: GUCY 062000Z 20010KT 9999 FEW015 29/25 Q1012 NOSIG

czas: 21:04 (21:04 UTC)

Prognoza

Raport powstał 4 godziny i 4 minut temu, godzina 17:00 UTC
Prognoza ważna od 06 godzina 18 UTC do 07 godzina 24 UTC
Wiatr 8 kt od zachód
Widzialność 10 km lub więcej
Brak chmur poniżej 1500 m i brak chmur cumulonimbus
Stopniowe zmiany
od 07 godzina 03 UTC do 07 godzina 07 UTC
Wiatr 2 kt z kierunków zmiennych
Rozproszone chmury na wysokości 1500 ft
Przerywane chmury na wysokości 11000 ft

TAF: GUCY 061700Z 0618/0724 27008KT 9999 FEW015 SCT110 TEMPO0 620/0701 CAVOK BECMG 0703/0707 VRB02KT SCT015 BKN110

Obserwacja i prognoza pogody dla ponad 4000 lotnisk (raport METAR i TAF).

Dostępne stacje oznaczono żółtymi i czerwonymi punktami na mapie.

Najedź kursorem aby zobaczyć nazwę stacji.

Kliknij aby zobaczyć obserwacje i prognozy pogody.

Aby zmienić mapę: kliknij na zielony przycisk z czarnym krzyżykiem, aby powiększyć; na zielony przycisk z myślnikiem, aby pomniejszyć; na zielone strzałki, aby przejść do map sąsiednich.


METAR-TAF: